createdAt,value
2022-12-23T00:01:27.666Z,99542.84
2022-12-23T00:04:01.026Z,99531.19
2022-12-23T00:06:30.807Z,99531.44
2022-12-23T00:09:00.794Z,99522.41
2022-12-23T00:11:30.619Z,99515.56
2022-12-23T00:14:21.044Z,99519.28
2022-12-23T00:16:51.762Z,99519.47
2022-12-23T00:19:21.332Z,99515.56
2022-12-23T00:21:51.201Z,99522.16
2022-12-23T00:24:20.606Z,99518.00
2022-12-23T00:26:49.960Z,99519.06
2022-12-23T00:29:21.927Z,99521.19
2022-12-23T00:31:51.394Z,99515.56
2022-12-23T00:34:20.818Z,99515.75
2022-12-23T00:36:50.244Z,99517.88
2022-12-23T00:39:32.193Z,99515.19
2022-12-23T00:42:14.149Z,99514.81
2022-12-23T00:44:46.174Z,99508.59
2022-12-23T00:47:36.707Z,99506.53
2022-12-23T00:50:03.851Z,99503.66
2022-12-23T00:52:33.260Z,99507.81
2022-12-23T00:55:02.662Z,99506.59
2022-12-23T00:57:32.058Z,99503.69
2022-12-23T01:00:04.064Z,99499.75
2022-12-23T01:02:46.205Z,99501.66
2022-12-23T01:05:38.992Z,99496.91
2022-12-23T01:08:10.500Z,99501.50
2022-12-23T01:10:40.350Z,99500.66
2022-12-23T01:13:10.249Z,99506.31
2022-12-23T01:15:42.195Z,99513.16
2022-12-23T01:18:11.591Z,99508.41
2022-12-23T01:20:41.304Z,99517.75
2022-12-23T01:23:10.717Z,99515.06
2022-12-23T01:25:40.097Z,99515.50
2022-12-23T01:28:09.540Z,99521.34
2022-12-23T01:30:42.620Z,99515.56
2022-12-23T01:33:11.981Z,99518.44
2022-12-23T01:35:41.350Z,99517.03
2022-12-23T01:38:10.845Z,99523.25
2022-12-23T01:40:41.066Z,99522.63
2022-12-23T01:43:14.743Z,99515.22
2022-12-23T01:45:47.219Z,99515.84
2022-12-23T01:48:19.984Z,99519.16
2022-12-23T01:50:54.421Z,99526.00
2022-12-23T01:53:27.412Z,99532.88
2022-12-23T01:56:00.329Z,99527.28
2022-12-23T01:58:34.408Z,99531.44
2022-12-23T02:01:19.747Z,99525.88
2022-12-23T02:03:51.562Z,99524.63
2022-12-23T02:06:37.016Z,99522.38
2022-12-23T02:09:19.926Z,99528.59
2022-12-23T02:12:09.655Z,99536.47
2022-12-23T02:15:07.488Z,99538.97
2022-12-23T02:17:49.379Z,99536.69
2022-12-23T02:21:06.055Z,99541.22
2022-12-23T02:24:32.454Z,99551.84
2022-12-23T02:27:14.703Z,99546.84
2022-12-23T02:30:08.138Z,99552.84
2022-12-23T02:33:00.918Z,99548.91
2022-12-23T02:35:39.162Z,99550.81
2022-12-23T02:38:14.484Z,99561.19
2022-12-23T02:40:54.272Z,99560.34
2022-12-23T02:43:32.559Z,99565.56
2022-12-23T02:46:07.127Z,99558.91
2022-12-23T02:48:48.139Z,99557.88
2022-12-23T02:51:18.774Z,99557.91
2022-12-23T02:53:53.068Z,99549.63
2022-12-23T02:56:24.837Z,99561.88
2022-12-23T02:58:58.795Z,99565.16
2022-12-23T03:01:32.024Z,99562.06
2022-12-23T03:04:06.599Z,99565.41
2022-12-23T03:06:42.163Z,99566.63
2022-12-23T03:09:16.214Z,99564.38
2022-12-23T03:11:54.418Z,99563.56
2022-12-23T03:14:53.101Z,99557.34
2022-12-23T03:17:39.818Z,99566.94
2022-12-23T03:20:23.181Z,99569.63
2022-12-23T03:23:02.511Z,99567.09
2022-12-23T03:25:38.574Z,99560.69
2022-12-23T03:28:14.767Z,99567.38
2022-12-23T03:30:49.170Z,99565.72
2022-12-23T03:33:22.365Z,99561.63
2022-12-23T03:36:00.367Z,99555.41
2022-12-23T03:38:31.615Z,99562.03
2022-12-23T03:41:08.232Z,99567.41
2022-12-23T03:43:48.530Z,99569.31
2022-12-23T03:46:25.009Z,99573.25
2022-12-23T03:48:58.132Z,99577.59
2022-12-23T03:51:37.126Z,99582.59
2022-12-23T03:54:12.089Z,99589.00
2022-12-23T03:56:45.749Z,99588.81
2022-12-23T03:59:17.976Z,99595.41
2022-12-23T04:01:55.987Z,99592.09
2022-12-23T04:04:29.822Z,99594.41
2022-12-23T04:07:07.808Z,99587.59
2022-12-23T04:09:38.797Z,99601.47
2022-12-23T04:12:10.513Z,99600.44
2022-12-23T04:14:41.012Z,99607.69
2022-12-23T04:17:10.441Z,99606.84
2022-12-23T04:19:39.920Z,99608.53
2022-12-23T04:22:11.941Z,99610.81
2022-12-23T04:24:41.877Z,99606.84
2022-12-23T04:27:15.238Z,99607.88
2022-12-23T04:29:44.683Z,99618.25
2022-12-23T04:32:14.079Z,99616.34
2022-12-23T04:34:43.491Z,99620.94
2022-12-23T04:37:15.617Z,99622.97
2022-12-23T04:39:45.031Z,99621.91
2022-12-23T04:42:14.428Z,99628.97
2022-12-23T04:44:43.830Z,99624.03
2022-12-23T04:47:13.322Z,99639.31
2022-12-23T04:49:42.918Z,99634.75
2022-12-23T04:52:14.901Z,99637.03
2022-12-23T04:54:46.461Z,99636.81
2022-12-23T04:57:16.419Z,99642.16
2022-12-23T04:59:45.898Z,99634.06
2022-12-23T05:02:15.456Z,99640.69
2022-12-23T05:04:44.999Z,99639.59
2022-12-23T05:07:16.966Z,99645.56
2022-12-23T05:09:46.369Z,99653.00
2022-12-23T05:12:15.803Z,99652.75
2022-12-23T05:14:45.171Z,99660.69
2022-12-23T05:17:14.588Z,99665.63
2022-12-23T05:19:44.013Z,99670.84
2022-12-23T05:22:13.404Z,99671.22
2022-12-23T05:24:45.412Z,99676.50
2022-12-23T05:27:14.815Z,99677.28
2022-12-23T05:29:44.292Z,99680.50
2022-12-23T05:32:13.723Z,99686.38
2022-12-23T05:34:43.167Z,99688.81
2022-12-23T05:37:12.541Z,99683.66
2022-12-23T05:39:41.967Z,99691.06
2022-12-23T05:42:19.294Z,99696.25
2022-12-23T05:44:48.788Z,99702.47
2022-12-23T05:47:18.290Z,99701.25
2022-12-23T05:49:47.702Z,99707.53
2022-12-23T05:52:17.226Z,99709.19
2022-12-23T05:54:47.098Z,99711.34
2022-12-23T05:57:19.344Z,99710.88
2022-12-23T05:59:48.751Z,99716.13
2022-12-23T06:02:18.632Z,99717.47
2022-12-23T06:04:48.200Z,99726.28
2022-12-23T06:07:17.535Z,99716.75
2022-12-23T06:09:46.903Z,99727.06
2022-12-23T06:12:19.101Z,99727.72
2022-12-23T06:14:48.474Z,99735.13
2022-12-23T06:17:17.854Z,99740.72
2022-12-23T06:19:47.411Z,99745.19
2022-12-23T06:22:17.808Z,99740.56
2022-12-23T06:24:47.643Z,99733.06
2022-12-23T06:27:20.227Z,99740.00
2022-12-23T06:29:49.626Z,99749.94
2022-12-23T06:32:19.119Z,99743.91
2022-12-23T06:34:50.396Z,99747.25
2022-12-23T06:37:19.756Z,99743.75
2022-12-23T06:39:49.104Z,99747.66
2022-12-23T06:42:21.056Z,99760.16
2022-12-23T06:44:50.449Z,99765.91
2022-12-23T06:47:19.863Z,99766.63
2022-12-23T06:49:49.265Z,99769.97
2022-12-23T06:52:18.983Z,99778.50
2022-12-23T06:54:48.386Z,99784.56
2022-12-23T06:57:17.789Z,99796.13
2022-12-23T06:59:49.756Z,99794.75
2022-12-23T07:02:19.225Z,99794.03
2022-12-23T07:04:48.820Z,99794.84
2022-12-23T07:07:18.177Z,99799.78
2022-12-23T07:09:47.509Z,99801.44
2022-12-23T07:12:17.072Z,99815.44
2022-12-23T07:14:49.002Z,99823.34
2022-12-23T07:17:18.752Z,99808.69
2022-12-23T07:19:48.162Z,99823.50
2022-12-23T07:22:17.560Z,99825.47
2022-12-23T07:24:46.964Z,99826.03
2022-12-23T07:27:16.328Z,99816.81
2022-12-23T07:29:45.784Z,99820.72
2022-12-23T07:32:17.769Z,99818.03
2022-12-23T07:34:47.176Z,99827.97
2022-12-23T07:37:16.531Z,99836.84
2022-12-23T07:39:46.168Z,99842.59
2022-12-23T07:42:43.380Z,99831.22
2022-12-23T07:45:04.941Z,99836.22
2022-12-23T07:47:36.876Z,99848.66
2022-12-23T07:50:06.889Z,99846.50
2022-12-23T07:52:36.355Z,99847.09
2022-12-23T07:55:06.474Z,99857.38
2022-12-23T07:57:38.324Z,99856.72
2022-12-23T08:00:09.801Z,99864.13
2022-12-23T08:02:44.756Z,99861.16
2022-12-23T08:05:15.342Z,99864.81
2022-12-23T08:07:45.315Z,99863.38
2022-12-23T08:10:15.100Z,99866.44
2022-12-23T08:12:45.841Z,99873.59
2022-12-23T08:15:15.400Z,99868.97
2022-12-23T08:17:47.633Z,99874.25
2022-12-23T08:20:17.121Z,99876.66
2022-12-23T08:22:46.513Z,99877.22
2022-12-23T08:25:15.916Z,99870.81
2022-12-23T08:27:45.305Z,99881.13
2022-12-23T08:30:15.567Z,99884.47
2022-12-23T08:32:47.527Z,99896.59
2022-12-23T08:35:17.087Z,99904.59
2022-12-23T08:37:46.629Z,99901.16
2022-12-23T08:40:16.796Z,99896.97
2022-12-23T08:42:46.160Z,99897.34
2022-12-23T08:45:16.140Z,99891.59
2022-12-23T08:47:48.090Z,99895.34
2022-12-23T08:50:17.493Z,99902.34
2022-12-23T08:52:46.856Z,99902.19
2022-12-23T08:55:17.189Z,99907.75
2022-12-23T08:57:46.636Z,99911.63
2022-12-23T09:00:17.152Z,99908.88
2022-12-23T09:02:49.185Z,99918.22
2022-12-23T09:05:18.769Z,99919.06
2022-12-23T09:07:48.276Z,99909.03
2022-12-23T09:10:17.852Z,99908.94
2022-12-23T09:12:47.365Z,99907.47
2022-12-23T09:15:16.959Z,99911.38
2022-12-23T09:17:48.996Z,99910.72
2022-12-23T09:20:18.414Z,99908.22
2022-12-23T09:22:47.951Z,99909.31
2022-12-23T09:25:17.483Z,99903.75
2022-12-23T09:27:46.855Z,99906.56
2022-12-23T09:30:17.116Z,99910.72
2022-12-23T09:32:49.109Z,99912.56
2022-12-23T09:35:18.782Z,99915.06
2022-12-23T09:37:48.273Z,99916.19
2022-12-23T09:40:22.353Z,99920.53
2022-12-23T09:43:04.823Z,99922.50
2022-12-23T09:45:54.928Z,99931.41
2022-12-23T09:48:30.918Z,99931.53
2022-12-23T09:51:00.379Z,99925.66
2022-12-23T09:53:39.663Z,99933.69
2022-12-23T09:56:18.561Z,99930.19
2022-12-23T09:58:54.439Z,99933.09
2022-12-23T10:01:31.599Z,99927.22
2022-12-23T10:04:34.766Z,99927.88
2022-12-23T10:07:33.983Z,99929.56
2022-12-23T10:10:10.028Z,99938.44
2022-12-23T10:12:43.473Z,99933.63
2022-12-23T10:15:23.604Z,99929.19
2022-12-23T10:17:55.931Z,99924.81
2022-12-23T10:20:37.697Z,99924.91
2022-12-23T10:23:09.560Z,99930.66
2022-12-23T10:25:43.656Z,99934.00
2022-12-23T10:28:13.473Z,99929.28
2022-12-23T10:31:10.911Z,99939.94
2022-12-23T10:33:46.993Z,99934.91
2022-12-23T10:36:26.519Z,99930.91
2022-12-23T10:39:03.365Z,99930.25
2022-12-23T10:41:40.575Z,99929.06
2022-12-23T10:44:45.972Z,99929.81
2022-12-23T10:47:27.290Z,99926.47
2022-12-23T10:50:11.150Z,99918.47
2022-12-23T10:52:46.688Z,99913.78
2022-12-23T10:55:28.540Z,99902.84
2022-12-23T10:58:11.604Z,99899.41
2022-12-23T11:00:45.776Z,99890.03
2022-12-23T11:03:23.287Z,99883.84
2022-12-23T11:05:55.616Z,99879.13
2022-12-23T11:08:29.989Z,99881.28
2022-12-23T11:10:59.654Z,99887.16
2022-12-23T11:13:38.194Z,99883.75
2022-12-23T11:16:25.164Z,99882.09
2022-12-23T11:19:02.992Z,99890.25
2022-12-23T11:21:34.752Z,99888.03
2022-12-23T11:24:22.765Z,99901.72
2022-12-23T11:27:01.175Z,99900.56
2022-12-23T11:29:34.282Z,99893.06
2022-12-23T11:32:05.910Z,99889.22
2022-12-23T11:34:39.950Z,99891.38
2022-12-23T11:37:09.356Z,99889.47
2022-12-23T11:39:41.410Z,99884.31
2022-12-23T11:42:18.197Z,99880.84
2022-12-23T11:44:51.161Z,99881.88
2022-12-23T11:47:29.339Z,99887.06
2022-12-23T11:50:01.204Z,99878.06
2022-12-23T11:52:31.920Z,99877.97
2022-12-23T11:55:07.015Z,99880.00
2022-12-23T11:57:43.306Z,99874.56
2022-12-23T12:00:23.426Z,99879.97
2022-12-23T12:02:55.811Z,99882.97
2022-12-23T12:05:31.519Z,99884.34
2022-12-23T12:08:04.056Z,99876.75
2022-12-23T12:10:37.722Z,99871.97
2022-12-23T12:13:09.219Z,99859.91
2022-12-23T12:15:46.404Z,99851.91
2022-12-23T12:18:19.335Z,99846.25
2022-12-23T12:20:53.493Z,99832.03
2022-12-23T12:23:31.154Z,99833.84
2022-12-23T12:26:07.585Z,99826.13
2022-12-23T12:28:41.033Z,99826.97
2022-12-23T12:31:19.715Z,99818.09
2022-12-23T12:33:53.493Z,99816.97
2022-12-23T12:36:33.172Z,99812.31
2022-12-23T12:39:02.883Z,99806.50
2022-12-23T12:41:39.705Z,99798.94
2022-12-23T12:44:29.452Z,99793.94
2022-12-23T12:47:27.974Z,99799.97
2022-12-23T12:49:59.657Z,99791.41
2022-12-23T12:52:30.739Z,99776.34
2022-12-23T12:55:05.065Z,99772.19
2022-12-23T12:57:39.237Z,99772.63
2022-12-23T13:00:17.615Z,99770.06
2022-12-23T13:03:14.005Z,99774.16
2022-12-23T13:05:59.196Z,99767.66
2022-12-23T13:08:51.445Z,99762.28
2022-12-23T13:11:28.342Z,99764.72
2022-12-23T13:14:08.799Z,99756.03
2022-12-23T13:16:50.442Z,99753.72
2022-12-23T13:19:29.031Z,99757.41
2022-12-23T13:22:06.931Z,99757.19
2022-12-23T13:24:46.408Z,99768.38
2022-12-23T13:27:22.286Z,99767.97
2022-12-23T13:30:04.718Z,99762.75
2022-12-23T13:32:59.616Z,99768.03
2022-12-23T13:35:39.662Z,99769.09
2022-12-23T13:38:24.827Z,99762.88
2022-12-23T13:41:01.739Z,99748.94
2022-12-23T13:43:42.994Z,99752.47
2022-12-23T13:46:25.190Z,99754.91
2022-12-23T13:49:02.446Z,99752.41
2022-12-23T13:51:40.227Z,99747.19
2022-12-23T13:54:20.539Z,99759.59
2022-12-23T13:56:56.709Z,99758.94
2022-12-23T13:59:26.144Z,99748.34
2022-12-23T14:01:58.197Z,99746.50
2022-12-23T14:04:39.248Z,99732.19
2022-12-23T14:07:21.823Z,99733.25
2022-12-23T14:09:55.943Z,99729.06
2022-12-23T14:12:30.732Z,99717.41
2022-12-23T14:15:22.332Z,99726.13
2022-12-23T14:18:09.602Z,99727.34
2022-12-23T14:20:51.043Z,99715.28
2022-12-23T14:23:34.363Z,99714.81
2022-12-23T14:26:33.695Z,99709.19
2022-12-23T14:29:18.220Z,99710.09
2022-12-23T14:31:49.608Z,99707.13
2022-12-23T14:34:31.927Z,99705.94
2022-12-23T14:37:18.662Z,99699.91
2022-12-23T14:39:48.132Z,99699.28
2022-12-23T14:42:36.960Z,99698.44
2022-12-23T14:45:31.377Z,99690.91
2022-12-23T14:48:00.769Z,99692.41
2022-12-23T14:50:44.689Z,99694.28
2022-12-23T14:53:25.394Z,99696.31
2022-12-23T14:56:14.027Z,99690.50
2022-12-23T14:59:07.100Z,99687.81
2022-12-23T15:01:41.762Z,99684.44
2022-12-23T15:04:19.262Z,99682.16
2022-12-23T15:06:54.795Z,99682.59
2022-12-23T15:09:27.707Z,99683.06
2022-12-23T15:12:00.158Z,99679.53
2022-12-23T15:14:35.390Z,99674.72
2022-12-23T15:17:17.925Z,99663.50
2022-12-23T15:19:49.017Z,99658.31
2022-12-23T15:22:28.528Z,99651.66
2022-12-23T15:25:01.322Z,99647.94
2022-12-23T15:27:32.665Z,99643.59
2022-12-23T15:30:02.784Z,99637.16
2022-12-23T15:32:32.446Z,99627.25
2022-12-23T15:35:06.142Z,99630.69
2022-12-23T15:37:38.143Z,99631.34
2022-12-23T15:40:13.326Z,99620.97
2022-12-23T15:42:49.828Z,99622.38
2022-12-23T15:45:37.770Z,99623.41
2022-12-23T15:48:08.941Z,99624.88
2022-12-23T15:50:42.484Z,99613.09
2022-12-23T15:53:19.830Z,99623.84
2022-12-23T15:55:51.558Z,99620.16
2022-12-23T15:58:24.005Z,99610.56
2022-12-23T16:00:57.461Z,99617.19
2022-12-23T16:03:30.422Z,99607.47
2022-12-23T16:06:10.515Z,99603.94
2022-12-23T16:08:42.743Z,99612.25
2022-12-23T16:11:17.891Z,99613.66
2022-12-23T16:13:58.951Z,99614.50
2022-12-23T16:16:39.627Z,99610.16
2022-12-23T16:19:29.384Z,99608.66
2022-12-23T16:21:58.835Z,99610.34
2022-12-23T16:24:30.978Z,99596.63
2022-12-23T16:27:00.437Z,99594.50
2022-12-23T16:29:29.882Z,99583.59
2022-12-23T16:32:02.027Z,99571.84
2022-12-23T16:34:33.791Z,99573.50
2022-12-23T16:37:03.175Z,99561.06
2022-12-23T16:39:35.487Z,99561.28
2022-12-23T16:42:05.091Z,99562.94
2022-12-23T16:44:34.545Z,99567.28
2022-12-23T16:47:09.904Z,99575.53
2022-12-23T16:49:40.173Z,99566.00
2022-12-23T16:52:10.196Z,99554.41
2022-12-23T16:54:42.540Z,99562.75
2022-12-23T16:57:13.028Z,99556.97
2022-12-23T16:59:42.399Z,99550.69
2022-12-23T17:02:22.741Z,99553.66
2022-12-23T17:04:52.154Z,99555.97
2022-12-23T17:07:23.905Z,99556.53
2022-12-23T17:09:55.849Z,99550.97
2022-12-23T17:12:25.255Z,99547.63
2022-12-23T17:14:54.584Z,99539.38
2022-12-23T17:17:25.815Z,99535.47
2022-12-23T17:19:56.325Z,99534.84
2022-12-23T17:22:26.355Z,99527.31
2022-12-23T17:24:58.362Z,99530.84
2022-12-23T17:27:27.867Z,99518.03
2022-12-23T17:29:57.427Z,99518.25
2022-12-23T17:32:27.019Z,99510.97
2022-12-23T17:34:56.443Z,99512.19
2022-12-23T17:37:25.854Z,99503.97
2022-12-23T17:39:57.809Z,99501.25
2022-12-23T17:42:27.241Z,99489.22
2022-12-23T17:44:56.604Z,99493.31
2022-12-23T17:47:25.996Z,99498.13
2022-12-23T17:49:55.326Z,99490.06
2022-12-23T17:52:26.258Z,99487.53
2022-12-23T17:54:58.212Z,99480.53
2022-12-23T17:57:29.674Z,99477.44
2022-12-23T17:59:59.091Z,99474.94
2022-12-23T18:02:32.822Z,99466.03
2022-12-23T18:05:02.613Z,99469.56
2022-12-23T18:07:31.965Z,99459.84
2022-12-23T18:10:03.916Z,99466.88
2022-12-23T18:12:37.147Z,99459.84
2022-12-23T18:15:09.945Z,99466.88
2022-12-23T18:17:39.200Z,99461.88
2022-12-23T18:20:16.530Z,99456.25
2022-12-23T18:22:46.644Z,99445.28
2022-12-23T18:25:25.120Z,99441.41
2022-12-23T18:27:55.452Z,99445.28
2022-12-23T18:30:25.392Z,99445.94
2022-12-23T18:32:54.963Z,99450.06
2022-12-23T18:35:30.727Z,99443.84
2022-12-23T18:38:01.460Z,99450.44
2022-12-23T18:40:33.459Z,99447.97
2022-12-23T18:43:03.001Z,99446.53
2022-12-23T18:45:37.014Z,99445.91
2022-12-23T18:48:09.078Z,99435.19
2022-12-23T18:50:40.099Z,99445.28
2022-12-23T18:53:18.167Z,99437.63
2022-12-23T18:55:54.097Z,99427.69
2022-12-23T18:58:24.479Z,99424.38
2022-12-23T19:00:55.401Z,99429.75
2022-12-23T19:03:27.394Z,99442.75
2022-12-23T19:05:58.436Z,99450.69
2022-12-23T19:08:28.905Z,99445.13
2022-12-23T19:11:01.041Z,99442.22
2022-12-23T19:13:30.554Z,99441.97
2022-12-23T19:15:59.987Z,99433.06
2022-12-23T19:18:29.407Z,99440.13
2022-12-23T19:20:59.135Z,99431.84
2022-12-23T19:23:28.551Z,99435.97
2022-12-23T19:25:58.017Z,99430.53
2022-12-23T19:28:30.072Z,99420.03
2022-12-23T19:30:59.538Z,99421.06
2022-12-23T19:33:28.958Z,99415.25
2022-12-23T19:35:58.425Z,99419.56
2022-12-23T19:38:28.544Z,99426.41
2022-12-23T19:41:00.998Z,99418.13
2022-12-23T19:43:33.162Z,99434.59
2022-12-23T19:46:04.271Z,99440.84
2022-12-23T19:48:33.833Z,99442.31
2022-12-23T19:51:04.939Z,99442.06
2022-12-23T19:53:34.971Z,99445.66
2022-12-23T19:56:06.083Z,99451.66
2022-12-23T19:58:40.912Z,99452.69
2022-12-23T20:01:12.196Z,99452.50
2022-12-23T20:03:42.949Z,99442.31
2022-12-23T20:06:17.266Z,99449.16
2022-12-23T20:08:47.158Z,99461.53
2022-12-23T20:11:18.896Z,99462.19
2022-12-23T20:13:54.884Z,99466.44
2022-12-23T20:16:24.962Z,99468.56
2022-12-23T20:18:55.072Z,99461.13
2022-12-23T20:21:24.805Z,99458.91
2022-12-23T20:23:54.558Z,99455.38
2022-12-23T20:26:24.417Z,99458.72
2022-12-23T20:28:56.560Z,99458.06
2022-12-23T20:31:27.617Z,99469.41
2022-12-23T20:33:58.156Z,99467.94
2022-12-23T20:36:30.017Z,99463.66
2022-12-23T20:39:00.207Z,99477.16
2022-12-23T20:41:32.385Z,99476.25
2022-12-23T20:46:54.038Z,99470.28
2022-12-23T20:49:23.872Z,99458.28
2022-12-23T20:51:53.298Z,99463.00
2022-12-23T20:54:27.961Z,99474.53
2022-12-23T20:56:59.456Z,99485.47
2022-12-23T20:59:31.543Z,99483.34
2022-12-23T21:02:01.370Z,99494.38
2022-12-23T21:04:30.854Z,99494.56
2022-12-23T21:07:00.439Z,99487.97
2022-12-23T21:09:29.816Z,99492.56
2022-12-23T21:11:59.411Z,99489.47
2022-12-23T21:14:31.485Z,99506.16
2022-12-23T21:17:00.838Z,99510.69
2022-12-23T21:19:30.318Z,99500.59
2022-12-23T21:22:00.113Z,99508.06
2022-12-23T21:24:30.154Z,99502.06
2022-12-23T21:26:59.534Z,99508.84
2022-12-23T21:29:31.665Z,99517.47
2022-12-23T21:32:01.157Z,99523.75
2022-12-23T21:34:30.665Z,99526.81
2022-12-23T21:37:00.139Z,99526.00
2022-12-23T21:39:30.664Z,99529.91
2022-12-23T21:42:00.190Z,99528.50
2022-12-23T21:44:32.177Z,99536.63
2022-12-23T21:47:01.590Z,99544.19
2022-12-23T21:49:31.039Z,99553.53
2022-12-23T21:52:00.463Z,99554.47
2022-12-23T21:54:29.824Z,99568.13
2022-12-23T21:56:59.191Z,99566.31
2022-12-23T21:59:34.719Z,99561.16
2022-12-23T22:02:07.324Z,99556.72
2022-12-23T22:04:36.735Z,99570.16
2022-12-23T22:07:06.449Z,99571.91
2022-12-23T22:09:35.883Z,99570.50
2022-12-23T22:12:05.320Z,99578.41
2022-12-23T22:14:34.735Z,99587.56
2022-12-23T22:17:06.697Z,99574.44
2022-12-23T22:19:36.102Z,99572.75
2022-12-23T22:22:05.560Z,99571.13
2022-12-23T22:24:35.002Z,99580.34
2022-12-23T22:27:04.402Z,99593.22
2022-12-23T22:29:34.001Z,99593.03
2022-12-23T22:32:03.450Z,99591.81
2022-12-23T22:34:35.446Z,99596.56
2022-12-23T22:37:04.904Z,99602.19
2022-12-23T22:39:34.312Z,99602.38
2022-12-23T22:42:03.721Z,99605.94
2022-12-23T22:44:33.356Z,99600.88
2022-12-23T22:47:02.825Z,99607.78
2022-12-23T22:49:34.908Z,99612.69
2022-12-23T22:52:04.290Z,99617.78
2022-12-23T22:54:33.682Z,99632.91
2022-12-23T22:57:03.131Z,99630.75
2022-12-23T22:59:32.541Z,99624.28
2022-12-23T23:02:02.457Z,99623.16
2022-12-23T23:04:31.870Z,99628.81
2022-12-23T23:07:03.908Z,99632.19
2022-12-23T23:09:33.327Z,99636.81
2022-12-23T23:12:02.761Z,99633.53
2022-12-23T23:14:52.371Z,99637.91
2022-12-23T23:17:22.284Z,99646.34
2022-12-23T23:19:52.245Z,99644.66
2022-12-23T23:22:26.659Z,99646.34
2022-12-23T23:24:56.094Z,99643.19
2022-12-23T23:27:25.564Z,99648.94
2022-12-23T23:29:55.001Z,99658.22
2022-12-23T23:32:24.556Z,99651.47
2022-12-23T23:34:54.013Z,99649.06
2022-12-23T23:37:25.987Z,99645.53
2022-12-23T23:39:55.390Z,99641.72
2022-12-23T23:42:24.795Z,99647.94
2022-12-23T23:44:54.173Z,99650.63
2022-12-23T23:47:23.772Z,99647.66
2022-12-23T23:49:53.220Z,99665.28
2022-12-23T23:52:23.073Z,99659.69
2022-12-23T23:54:55.064Z,99657.78
2022-12-23T23:57:26.289Z,99674.72
2022-12-23T23:59:56.239Z,99676.50
